Time;durP1;ratioP1;P1;durP2;ratioP2;P2;SDS_P1;SDS_P2;PMS_P1;PMS_P2;Temp;Humidity;BMP_temperature;BMP_pressure;BME280_temperature;BME280_humidity;BME280_pressure;Samples;Min_cycle;Max_cycle;Signal;HPM_P1;HPM_P2
2021/05/28 00:01:21;;;;;;;4.82;1.88;;;486.70;1715.20;;;;;;4993314;28;20056;-81
2021/05/28 00:03:47;;;;;;;3.13;1.73;;;486.60;1715.20;;;;;;4993112;28;20026;-85
2021/05/28 00:06:13;;;;;;;3.70;1.88;;;486.50;1740.80;;;;;;4993765;28;20432;-81
2021/05/28 00:08:39;;;;;;;3.28;1.75;;;486.40;1740.80;;;;;;4993663;28;20030;-85
2021/05/28 00:11:05;;;;;;;4.15;1.88;;;461.70;1740.80;;;;;;4994413;28;20025;-85
2021/05/28 00:13:32;;;;;;;3.95;1.52;;;461.70;1766.40;;;;;;4975579;28;20121;-81
2021/05/28 00:15:58;;;;;;;5.95;1.63;;;461.70;1766.40;;;;;;4992961;28;20106;-82
2021/05/28 00:18:23;;;;;;;3.88;1.70;;;461.50;1792.00;;;;;;4992640;28;20133;-81
2021/05/28 00:20:49;;;;;;;7.60;1.80;;;461.70;1766.40;;;;;;4991768;28;20030;-85
2021/05/28 00:23:15;;;;;;;4.05;1.73;;;461.50;1792.00;;;;;;4993610;28;20065;-84
2021/05/28 00:25:41;;;;;;;4.88;2.17;;;461.30;1817.60;;;;;;4993100;28;20113;-86
2021/05/28 00:28:06;;;;;;;3.10;1.60;;;461.40;1792.00;;;;;;4999559;28;20063;-85
2021/05/28 00:30:32;;;;;;;3.00;1.90;;;461.40;1792.00;;;;;;5026472;28;20033;-80
2021/05/28 00:32:58;;;;;;;3.85;1.80;;;461.50;1792.00;;;;;;5024885;28;20032;-81
2021/05/28 00:35:23;;;;;;;6.80;1.70;;;461.40;1792.00;;;;;;5024149;28;20033;-80
2021/05/28 00:37:49;;;;;;;4.30;2.13;;;461.40;1817.60;;;;;;5021904;28;20041;-82
2021/05/28 00:40:16;;;;;;;4.53;1.80;;;461.40;1792.00;;;;;;5026701;28;20502;-84
2021/05/28 00:42:43;;;;;;;3.30;1.70;;;461.20;1817.60;;;;;;5033062;28;20021;-80
2021/05/28 00:45:09;;;;;;;2.25;1.33;;;461.20;1817.60;;;;;;5014273;28;20029;-84
2021/05/28 00:47:35;;;;;;;2.97;1.92;;;461.20;1843.20;;;;;;5023188;28;20037;-84
2021/05/28 00:50:01;;;;;;;5.70;1.80;;;461.40;1792.00;;;;;;5024678;28;20030;-79
2021/05/28 00:52:27;;;;;;;2.17;1.30;;;460.90;1817.60;;;;;;5021145;28;20060;-83
2021/05/28 00:54:53;;;;;;;6.03;1.63;;;461.20;1792.00;;;;;;5032540;28;20049;-80
2021/05/28 00:57:21;;;;;;;4.60;1.67;;;461.20;1792.00;;;;;;5027460;28;20132;-80
2021/05/28 00:59:49;;;;;;;3.50;1.80;;;461.20;1792.00;;;;;;5019972;28;20064;-80
2021/05/28 01:02:15;;;;;;;3.22;1.60;;;461.10;1817.60;;;;;;5027415;28;20476;-80
2021/05/28 01:04:41;;;;;;;5.53;1.75;;;461.10;1792.00;;;;;;5018099;28;20033;-80
2021/05/28 01:07:06;;;;;;;6.20;2.05;;;461.10;1792.00;;;;;;5032422;28;20549;-79
2021/05/28 01:09:32;;;;;;;3.35;1.38;;;461.10;1792.00;;;;;;5020730;28;20033;-80
2021/05/28 01:11:58;;;;;;;6.90;1.73;;;461.00;1792.00;;;;;;5032104;28;20021;-80
2021/05/28 01:14:24;;;;;;;3.50;1.75;;;461.00;1817.60;;;;;;5020016;28;20041;-79
2021/05/28 01:16:49;;;;;;;6.88;1.50;;;460.90;1817.60;;;;;;5017608;28;20033;-78
2021/05/28 01:19:15;;;;;;;8.48;1.55;;;460.90;1817.60;;;;;;5022041;28;20044;-80
2021/05/28 01:21:43;;;;;;;4.15;1.77;;;460.90;1817.60;;;;;;5037111;28;20025;-79
2021/05/28 01:24:09;;;;;;;4.63;1.40;;;460.80;1817.60;;;;;;5034691;28;20143;-80
2021/05/28 01:26:35;;;;;;;5.47;1.48;;;460.80;1817.60;;;;;;5015004;28;20029;-79
2021/05/28 01:29:02;;;;;;;5.75;1.92;;;460.80;1792.00;;;;;;5014725;28;20053;-80
2021/05/28 01:31:27;;;;;;;4.95;1.80;;;460.80;1792.00;;;;;;5030120;28;20033;-80
2021/05/28 01:33:53;;;;;;;4.72;1.42;;;460.80;1766.40;;;;;;5031537;28;20029;-80
2021/05/28 01:36:19;;;;;;;5.57;1.67;;;460.80;1792.00;;;;;;5031142;28;20021;-80
2021/05/28 01:38:45;;;;;;;2.63;1.40;;;460.80;1766.40;;;;;;5026202;28;20561;-80
2021/05/28 01:41:11;;;;;;;2.33;1.30;;;461.00;1766.40;;;;;;5031640;28;20112;-80
2021/05/28 01:43:36;;;;;;;3.67;1.73;;;461.10;1740.80;;;;;;5064547;28;20025;-80
2021/05/28 01:46:03;;;;;;;3.22;1.88;;;461.20;1740.80;;;;;;5064574;28;20048;-80
2021/05/28 01:48:28;;;;;;;4.07;1.63;;;461.40;1766.40;;;;;;5031341;28;20071;-80
2021/05/28 01:50:54;;;;;;;2.97;1.50;;;461.10;1792.00;;;;;;5031264;28;20112;-80
2021/05/28 01:53:22;;;;;;;2.25;1.48;;;460.80;1843.20;;;;;;5017324;28;20933;-79
2021/05/28 01:55:49;;;;;;;3.67;1.98;;;460.80;1843.20;;;;;;5064657;28;20025;-79
2021/05/28 01:58:21;;;;;;;9.38;1.90;;;460.80;1817.60;;;;;;5018488;28;20072;-80
2021/05/28 02:00:51;;;;;;;2.47;1.55;;;460.90;1792.00;;;;;;5031080;28;20489;-81
2021/05/28 02:03:17;;;;;;;2.53;1.70;;;460.90;1792.00;;;;;;5019669;28;20039;-80
2021/05/28 02:05:44;;;;;;;2.35;1.30;;;461.00;1792.00;;;;;;5031298;28;20026;-81
2021/05/28 02:08:10;;;;;;;3.58;1.77;;;460.80;1792.00;;;;;;5030810;28;20029;-81
2021/05/28 02:10:36;;;;;;;7.30;2.22;;;460.90;1792.00;;;;;;5028422;28;20033;-80
2021/05/28 02:13:02;;;;;;;5.10;1.70;;;460.90;1792.00;;;;;;5022380;28;20124;-82
2021/05/28 02:15:28;;;;;;;3.38;1.83;;;460.80;1792.00;;;;;;5031119;28;20048;-81
2021/05/28 02:17:54;;;;;;;6.20;1.80;;;436.10;1792.00;;;;;;5031753;28;20065;-80
2021/05/28 02:20:21;;;;;;;3.55;1.52;;;436.00;1766.40;;;;;;5031935;28;20026;-82
2021/05/28 02:22:47;;;;;;;2.70;1.25;;;436.00;1740.80;;;;;;5030869;28;20021;-81
2021/05/28 02:25:13;;;;;;;3.92;1.55;;;436.00;1740.80;;;;;;5030705;28;20390;-80
2021/05/28 02:27:39;;;;;;;3.03;1.98;;;435.90;1740.80;;;;;;5030784;28;20037;-81
2021/05/28 02:30:07;;;;;;;7.72;1.30;;;435.90;1766.40;;;;;;5017442;28;20495;-80
2021/05/28 02:32:33;;;;;;;4.53;1.60;;;436.00;1766.40;;;;;;5031861;28;20029;-79
2021/05/28 02:34:59;;;;;;;2.55;1.20;;;435.80;1766.40;;;;;;5030634;28;20379;-80
2021/05/28 02:37:25;;;;;;;2.90;1.27;;;435.90;1740.80;;;;;;5030832;28;20052;-81
2021/05/28 02:39:51;;;;;;;8.48;1.70;;;435.80;1766.40;;;;;;5030911;28;20609;-80
2021/05/28 02:42:17;;;;;;;3.60;1.60;;;435.80;1766.40;;;;;;5031538;28;20052;-80
2021/05/28 02:44:42;;;;;;;2.78;1.40;;;435.60;1817.60;;;;;;5030947;28;20025;-81
2021/05/28 02:47:09;;;;;;;3.00;1.50;;;435.60;1792.00;;;;;;5063974;28;20048;-80
2021/05/28 02:49:36;;;;;;;4.57;1.52;;;;;;;;;;5020167;28;20073;-80
2021/05/28 02:52:03;;;;;;;7.78;1.90;;;;;;;;;;5018212;28;20103;-81
2021/05/28 02:54:30;;;;;;;6.85;1.65;;;435.40;1868.80;;;;;;5034493;28;20036;-80
2021/05/28 02:56:56;;;;;;;6.40;2.05;;;435.20;1868.80;;;;;;5034728;28;20026;-80
2021/05/28 02:59:21;;;;;;;6.53;1.90;;;435.20;1868.80;;;;;;5033678;28;20072;-80
2021/05/28 03:01:48;;;;;;;6.53;2.08;;;435.20;1894.40;;;;;;5033581;28;20378;-79
2021/05/28 03:04:14;;;;;;;4.30;2.00;;;435.30;1920.00;;;;;;5035056;28;20017;-80
2021/05/28 03:06:40;;;;;;;9.50;2.58;;;435.50;1920.00;;;;;;5022700;28;20022;-80
2021/05/28 03:09:06;;;;;;;3.95;2.30;;;435.30;1945.60;;;;;;5033383;28;20091;-80
2021/05/28 03:11:32;;;;;;;6.90;2.30;;;435.30;1920.00;;;;;;5035316;28;20018;-80
2021/05/28 03:13:58;;;;;;;6.47;2.42;;;435.40;1920.00;;;;;;5033667;28;20029;-80
2021/05/28 03:16:24;;;;;;;6.22;2.65;;;410.50;1945.60;;;;;;5034070;28;20433;-80
2021/05/28 03:18:55;;;;;;;4.40;2.15;;;410.50;1920.00;;;;;;5033334;28;20083;-80
2021/05/28 03:23:57;;;;;;;5.37;2.60;;;410.20;1971.20;;;;;;5034873;28;20175;-80
2021/05/28 03:26:24;;;;;;;5.13;2.55;;;410.50;1945.60;;;;;;5024733;28;20084;-80
2021/05/28 03:28:51;;;;;;;5.13;2.85;;;410.50;1945.60;;;;;;5054160;28;20050;-81
2021/05/28 03:31:17;;;;;;;4.93;2.53;;;410.10;1945.60;;;;;;5030548;28;20017;-79
2021/05/28 03:33:43;;;;;;;4.18;2.72;;;410.30;1971.20;;;;;;5027792;28;20486;-80
2021/05/28 03:36:09;;;;;;;4.25;2.88;;;410.50;1971.20;;;;;;5034506;28;20025;-80
2021/05/28 03:38:35;;;;;;;7.20;2.47;;;410.50;1971.20;;;;;;5029461;28;20037;-81
2021/05/28 03:41:01;;;;;;;8.93;2.70;;;410.50;1971.20;;;;;;5026803;28;20028;-80
2021/05/28 03:43:27;;;;;;;3.85;2.35;;;435.30;1971.20;;;;;;5033268;28;20048;-80
2021/05/28 03:45:53;;;;;;;6.38;2.72;;;435.20;1971.20;;;;;;5032789;28;20443;-80
2021/05/28 03:48:19;;;;;;;4.65;2.78;;;435.30;1945.60;;;;;;5018585;28;20026;-80
2021/05/28 03:50:45;;;;;;;7.28;2.90;;;435.30;1971.20;;;;;;5033252;28;20036;-80
2021/05/28 03:53:11;;;;;;;5.03;2.80;;;435.40;1945.60;;;;;;5020254;28;20128;-79
2021/05/28 03:55:37;;;;;;;6.10;3.40;;;435.50;1945.60;;;;;;5034072;28;20037;-80
2021/05/28 03:58:03;;;;;;;5.57;2.58;;;435.30;1945.60;;;;;;5033188;28;20041;-79
2021/05/28 04:00:28;;;;;;;5.68;3.20;;;435.40;1945.60;;;;;;5033201;28;20112;-81
2021/05/28 04:02:54;;;;;;;3.78;2.67;;;435.50;1920.00;;;;;;5032851;28;20030;-79
2021/05/28 04:05:20;;;;;;;9.23;3.35;;;435.40;1920.00;;;;;;5033577;28;20100;-79
2021/05/28 04:07:46;;;;;;;6.40;2.80;;;435.40;1894.40;;;;;;5032659;28;20032;-80
2021/05/28 04:10:14;;;;;;;5.45;2.85;;;435.50;1894.40;;;;;;5034091;28;20101;-79
2021/05/28 04:12:39;;;;;;;5.20;2.70;;;435.40;1920.00;;;;;;5028187;28;20056;-80
2021/05/28 04:15:06;;;;;;;7.00;2.05;;;435.50;1894.40;;;;;;5026558;28;20463;-80
2021/05/28 04:17:32;;;;;;;4.78;2.60;;;435.40;1894.40;;;;;;5038525;28;20033;-79
2021/05/28 04:19:58;;;;;;;5.53;2.05;;;435.40;1894.40;;;;;;5032486;28;20038;-80
2021/05/28 04:22:24;;;;;;;5.25;2.50;;;435.30;1894.40;;;;;;5031867;28;20042;-80
2021/05/28 04:24:50;;;;;;;4.85;2.15;;;410.50;1894.40;;;;;;5025393;28;20026;-79
2021/05/28 04:27:16;;;;;;;3.58;2.00;;;435.30;1868.80;;;;;;5033446;28;20036;-81
2021/05/28 04:29:41;;;;;;;3.83;2.35;;;435.20;1868.80;;;;;;5050462;28;20511;-80
2021/05/28 04:32:07;;;;;;;5.55;1.85;;;410.50;1894.40;;;;;;5022866;28;20022;-81
2021/05/28 04:34:34;;;;;;;4.57;1.80;;;435.20;1868.80;;;;;;5031905;28;20029;-79
2021/05/28 04:37:00;;;;;;;2.78;1.73;;;435.30;1843.20;;;;;;5027230;28;20071;-80
2021/05/28 04:39:26;;;;;;;5.93;2.60;;;435.20;1868.80;;;;;;5026496;28;20034;-80
2021/05/28 04:41:54;;;;;;;4.53;1.58;;;435.20;1868.80;;;;;;5032245;28;20021;-81
2021/05/28 04:44:19;;;;;;;3.85;1.50;;;410.50;1843.20;;;;;;5032139;28;20025;-80
2021/05/28 04:46:45;;;;;;;3.95;1.50;;;410.30;1894.40;;;;;;5031924;28;20022;-80
2021/05/28 04:49:11;;;;;;;5.72;1.90;;;410.50;1868.80;;;;;;5033122;28;20121;-80
2021/05/28 04:51:37;;;;;;;6.60;1.80;;;435.20;1843.20;;;;;;5031513;28;20029;-80
2021/05/28 04:54:04;;;;;;;5.18;1.83;;;410.50;1843.20;;;;;;5033382;28;20044;-80
2021/05/28 04:56:30;;;;;;;5.53;1.70;;;410.40;1843.20;;;;;;5031938;28;20566;-80
2021/05/28 04:58:55;;;;;;;5.20;1.70;;;410.50;1843.20;;;;;;5031931;28;20133;-80
2021/05/28 05:01:21;;;;;;;3.35;1.75;;;410.30;1843.20;;;;;;5022003;28;20021;-80
2021/05/28 05:03:47;;;;;;;5.13;1.90;;;410.30;1843.20;;;;;;5032587;28;20097;-80
2021/05/28 05:06:13;;;;;;;4.10;1.55;;;410.20;1868.80;;;;;;5031726;28;20498;-80
2021/05/28 05:08:38;;;;;;;7.60;1.70;;;410.20;1868.80;;;;;;5032747;28;20022;-79
2021/05/28 05:11:04;;;;;;;5.40;2.00;;;410.10;1894.40;;;;;;5031542;28;20029;-79
2021/05/28 05:13:30;;;;;;;6.07;1.80;;;410.10;1868.80;;;;;;5064526;28;20045;-79
2021/05/28 05:15:56;;;;;;;5.72;2.67;;;410.20;1868.80;;;;;;5027432;28;20037;-79
2021/05/28 05:18:24;;;;;;;2.38;1.50;;;410.20;1843.20;;;;;;5015144;28;20030;-78
2021/05/28 05:20:50;;;;;;;3.78;1.67;;;410.30;1843.20;;;;;;5031158;28;20490;-83
2021/05/28 05:23:16;;;;;;;6.00;2.00;;;410.30;1843.20;;;;;;5031408;28;20052;-80
2021/05/28 05:25:41;;;;;;;6.05;1.80;;;410.40;1817.60;;;;;;5031539;28;20021;-80
2021/05/28 05:28:07;;;;;;;6.03;2.15;;;410.50;1817.60;;;;;;5024570;28;20052;-82
2021/05/28 05:30:33;;;;;;;3.17;1.67;;;410.50;1843.20;;;;;;5033192;28;20395;-83
2021/05/28 05:32:59;;;;;;;8.25;2.00;;;410.50;1817.60;;;;;;5032385;28;20017;-83
2021/05/28 05:35:25;;;;;;;5.55;2.28;;;410.40;1817.60;;;;;;5014897;28;20031;-82
2021/05/28 05:37:51;;;;;;;55.30;22.42;;;410.20;1843.20;;;;;;5030079;28;20044;-81
2021/05/28 05:40:16;;;;;;;45.50;17.55;;;410.30;1817.60;;;;;;5032283;28;20438;-81
2021/05/28 05:42:42;;;;;;;20.65;7.07;;;410.50;1817.60;;;;;;5014588;28;20501;-84
2021/05/28 05:45:10;;;;;;;5.72;2.42;;;410.30;1843.20;;;;;;5015419;28;20052;-81
2021/05/28 05:47:36;;;;;;;2.63;1.70;;;410.30;1843.20;;;;;;5015191;28;20037;-81
2021/05/28 05:50:04;;;;;;;7.32;1.80;;;410.50;1817.60;;;;;;5014198;28;20463;-83
2021/05/28 05:52:29;;;;;;;3.50;1.90;;;435.20;1817.60;;;;;;5032745;28;20014;-81
2021/05/28 05:54:56;;;;;;;2.80;1.58;;;435.30;1817.60;;;;;;5032232;28;20035;-83
2021/05/28 05:57:21;;;;;;;3.92;1.98;;;435.30;1792.00;;;;;;5032385;28;20361;-82
2021/05/28 05:59:47;;;;;;;4.78;1.90;;;435.30;1843.20;;;;;;5020728;28;20040;-80
2021/05/28 06:02:13;;;;;;;3.50;2.20;;;435.40;1920.00;;;;;;5032241;28;20099;-81
2021/05/28 06:04:39;;;;;;;7.53;2.00;;;435.40;1971.20;;;;;;5032334;28;20029;-81
2021/05/28 06:07:04;;;;;;;6.03;1.95;;;435.50;1945.60;;;;;;5017342;28;20487;-80
2021/05/28 06:09:30;;;;;;;3.55;2.10;;;435.40;1971.20;;;;;;5014682;28;20112;-80
2021/05/28 06:11:57;;;;;;;3.13;1.83;;;435.30;1971.20;;;;;;5014300;28;20104;-79
2021/05/28 06:14:23;;;;;;;3.60;1.80;;;435.20;1971.20;;;;;;5014663;28;20037;-81
2021/05/28 06:16:49;;;;;;;5.65;2.25;;;435.20;1971.20;;;;;;5032148;28;20030;-81
2021/05/28 06:19:15;;;;;;;6.78;2.00;;;410.50;1996.80;;;;;;5014601;28;20112;-81
2021/05/28 06:21:41;;;;;;;6.35;1.85;;;435.20;1996.80;;;;;;5053675;28;20032;-81
2021/05/28 06:24:07;;;;;;;1.92;1.42;;;435.20;1971.20;;;;;;5030742;28;20029;-81
2021/05/28 06:26:34;;;;;;;8.98;1.85;;;410.50;1996.80;;;;;;5016057;28;20095;-82
2021/05/28 06:29:02;;;;;;;3.15;1.92;;;435.20;1971.20;;;;;;5021999;28;20099;-85
2021/05/28 06:31:28;;;;;;;3.42;1.90;;;410.50;1996.80;;;;;;5035589;28;20026;-80
2021/05/28 06:33:54;;;;;;;10.50;2.40;;;410.50;1996.80;;;;;;5027042;28;20059;-82
2021/05/28 06:36:20;;;;;;;3.85;2.00;;;410.50;1996.80;;;;;;5035623;28;20029;-83
2021/05/28 06:38:45;;;;;;;5.03;2.70;;;410.50;2022.40;;;;;;5052543;28;20037;-82
2021/05/28 06:41:11;;;;;;;4.32;2.30;;;410.50;2022.40;;;;;;5036236;28;20017;-86
2021/05/28 06:43:37;;;;;;;4.20;2.10;;;410.50;2022.40;;;;;;5035532;28;20030;-82
2021/05/28 06:46:03;;;;;;;2.97;1.88;;;410.50;2022.40;;;;;;5017457;28;20040;-83
2021/05/28 06:48:28;;;;;;;6.70;2.17;;;410.40;2022.40;;;;;;5027031;28;20060;-82
2021/05/28 06:50:54;;;;;;;5.68;1.80;;;410.50;2022.40;;;;;;5017526;28;20495;-82
2021/05/28 06:53:20;;;;;;;6.70;2.40;;;410.50;2022.40;;;;;;5051563;28;20022;-82
2021/05/28 06:55:46;;;;;;;4.35;2.35;;;410.30;2022.40;;;;;;5019392;28;20045;-83
2021/05/28 06:58:12;;;;;;;2.97;2.00;;;410.30;2022.40;;;;;;5027323;28;20037;-82
2021/05/28 07:00:38;;;;;;;5.70;2.55;;;410.30;2022.40;;;;;;5024506;28;20030;-81
2021/05/28 07:03:04;;;;;;;8.30;3.00;;;410.50;2022.40;;;;;;5028554;28;20075;-79
2021/05/28 07:05:30;;;;;;;6.95;2.35;;;410.50;2022.40;;;;;;5048519;28;20068;-82
2021/05/28 07:07:57;;;;;;;4.43;2.00;;;410.30;2048.00;;;;;;5025242;28;20029;-80
2021/05/28 07:10:23;;;;;;;6.72;2.50;;;410.40;2048.00;;;;;;5022082;28;20483;-81
2021/05/28 07:12:49;;;;;;;4.13;2.17;;;410.50;2048.00;;;;;;5028401;28;20060;-80
2021/05/28 07:15:16;;;;;;;3.72;2.08;;;410.50;2048.00;;;;;;5017525;28;20132;-79
2021/05/28 07:17:42;;;;;;;4.47;2.35;;;410.50;2073.60;;;;;;5017279;28;20044;-80
2021/05/28 07:20:08;;;;;;;4.93;2.38;;;435.20;2073.60;;;;;;5025144;28;20068;-83
2021/05/28 07:22:34;;;;;;;5.15;2.65;;;435.20;2073.60;;;;;;5029804;28;20025;-79
2021/05/28 07:25:04;;;;;;;4.97;2.80;;;435.20;2073.60;;;;;;5015822;28;20080;-86
2021/05/28 07:27:30;;;;;;;4.20;2.67;;;435.30;2022.40;;;;;;5018821;28;20025;-80
2021/05/28 07:29:57;;;;;;;4.10;2.80;;;435.40;1920.00;;;;;;5033820;28;20052;-82
2021/05/28 07:32:23;;;;;;;6.72;3.60;;;435.20;1868.80;;;;;;5033454;28;20056;-80
2021/05/28 07:34:49;;;;;;;4.38;2.80;;;435.20;1868.80;;;;;;5032184;28;20033;-79
2021/05/28 07:37:15;;;;;;;8.32;3.33;;;435.40;1843.20;;;;;;5034802;28;20098;-80
2021/05/28 07:39:40;;;;;;;5.32;3.08;;;410.50;1868.80;;;;;;5020090;28;20033;-81
2021/05/28 07:42:06;;;;;;;3.15;1.85;;;435.20;1843.20;;;;;;5028187;28;20044;-81
2021/05/28 07:44:32;;;;;;;9.48;2.78;;;410.50;1843.20;;;;;;5016963;28;20124;-83
2021/05/28 07:46:58;;;;;;;3.95;2.08;;;435.30;1817.60;;;;;;5033878;28;20159;-80
2021/05/28 07:49:25;;;;;;;5.65;2.40;;;435.30;1920.00;;;;;;5034636;28;20025;-82
2021/05/28 07:51:51;;;;;;;4.90;2.55;;;435.30;1945.60;;;;;;5033004;28;20021;-79
2021/05/28 07:54:17;;;;;;;6.22;1.98;;;435.40;1945.60;;;;;;5034694;28;20101;-80
2021/05/28 07:56:43;;;;;;;3.13;1.60;;;435.50;1920.00;;;;;;5033353;28;20024;-82
2021/05/28 07:59:10;;;;;;;4.03;2.05;;;435.50;1920.00;;;;;;5032897;28;20045;-79
2021/05/28 08:01:36;;;;;;;4.65;2.53;;;435.50;1920.00;;;;;;5021700;28;20025;-85
2021/05/28 08:04:04;;;;;;;4.20;2.25;;;435.50;1894.40;;;;;;5029774;28;20033;-84
2021/05/28 08:06:30;;;;;;;4.40;2.17;;;435.50;1894.40;;;;;;5026786;28;20471;-82
2021/05/28 08:08:56;;;;;;;4.03;1.88;;;435.40;1868.80;;;;;;5031147;28;20022;-79
2021/05/28 08:11:22;;;;;;;4.32;2.15;;;435.40;1868.80;;;;;;5024121;28;20025;-81
2021/05/28 08:13:48;;;;;;;7.35;2.28;;;435.40;1843.20;;;;;;5032962;28;20040;-84
2021/05/28 08:16:14;;;;;;;6.03;2.00;;;435.40;1817.60;;;;;;5033144;28;20026;-83
2021/05/28 08:18:40;;;;;;;7.57;1.83;;;435.40;1817.60;;;;;;5054321;28;20033;-83
2021/05/28 08:21:06;;;;;;;3.45;2.10;;;435.30;1843.20;;;;;;5028463;28;20025;-79
2021/05/28 08:23:32;;;;;;;6.53;2.38;;;435.30;1817.60;;;;;;5016091;28;20033;-82
2021/05/28 08:25:58;;;;;;;6.60;2.47;;;435.30;1817.60;;;;;;5033623;28;20053;-82
2021/05/28 08:28:24;;;;;;;5.72;2.28;;;435.20;1843.20;;;;;;5024117;28;20061;-82
2021/05/28 08:30:49;;;;;;;7.05;2.72;;;410.50;1843.20;;;;;;5032577;28;20030;-81
2021/05/28 08:33:16;;;;;;;3.28;2.25;;;410.40;1868.80;;;;;;5030181;28;20176;-84
2021/05/28 08:35:43;;;;;;;8.77;3.00;;;410.40;1868.80;;;;;;5024398;28;20026;-82
2021/05/28 08:38:10;;;;;;;6.93;2.97;;;410.50;1868.80;;;;;;5018623;28;20028;-87
2021/05/28 08:40:37;;;;;;;6.55;2.67;;;435.20;1843.20;;;;;;5028883;28;20032;-80
2021/05/28 08:43:04;;;;;;;6.70;2.78;;;435.20;1843.20;;;;;;5033559;28;20029;-83
2021/05/28 08:45:35;;;;;;;5.85;2.95;;;410.50;1843.20;;;;;;5018877;28;20018;-81
2021/05/28 08:48:03;;;;;;;7.10;2.92;;;435.20;1817.60;;;;;;5030428;28;20064;-80
2021/05/28 08:50:29;;;;;;;5.20;2.30;;;410.40;1843.20;;;;;;5021541;28;20029;-80
2021/05/28 08:52:55;;;;;;;6.22;2.95;;;435.50;1843.20;;;;;;5032485;28;20361;-79
2021/05/28 08:55:21;;;;;;;5.10;2.10;;;435.20;1843.20;;;;;;5024918;28;20022;-81
2021/05/28 08:57:46;;;;;;;5.07;2.28;;;435.20;1817.60;;;;;;5014876;28;20087;-79
2021/05/28 09:00:13;;;;;;;6.32;2.45;;;435.20;1843.20;;;;;;5025351;28;20029;-80
2021/05/28 09:02:40;;;;;;;4.68;2.55;;;435.30;1843.20;;;;;;5023391;28;20025;-80
2021/05/28 09:05:12;;;;;;;10.30;3.13;;;435.20;1792.00;;;;;;5028946;28;20109;-77
2021/05/28 09:07:40;;;;;;;5.40;1.92;;;435.30;1817.60;;;;;;5028209;28;20049;-78
2021/05/28 09:10:25;;;;;;;8.88;2.25;;;435.50;1817.60;;;;;;5031775;28;20025;-79
2021/05/28 09:12:50;;;;;;;7.13;2.40;;;435.60;1792.00;;;;;;5023968;28;20018;-80
2021/05/28 09:15:21;;;;;;;5.85;2.33;;;435.60;1817.60;;;;;;5023913;28;20388;-79
2021/05/28 09:17:49;;;;;;;4.85;2.10;;;435.80;1817.60;;;;;;5027940;28;20379;-79
2021/05/28 09:20:14;;;;;;;4.72;2.47;;;435.80;1817.60;;;;;;5031858;28;20138;-78
2021/05/28 09:22:40;;;;;;;6.05;2.80;;;435.90;1817.60;;;;;;5029097;28;20450;-77
2021/05/28 09:25:06;;;;;;;3.97;2.60;;;436.10;1817.60;;;;;;5011514;28;20029;-77
2021/05/28 09:27:35;;;;;;;3.72;2.30;;;460.80;1843.20;;;;;;5031527;28;20148;-78
2021/05/28 09:30:06;;;;;;;3.75;2.25;;;460.80;1843.20;;;;;;5027168;28;20045;-78
2021/05/28 09:32:34;;;;;;;5.45;2.78;;;461.00;1843.20;;;;;;5032340;28;20083;-77
2021/05/28 09:35:03;;;;;;;19.45;3.65;;;461.10;1817.60;;;;;;5022358;28;20045;-77
2021/05/28 09:37:37;;;;;;;5.15;2.92;;;461.30;1792.00;;;;;;5021146;28;20021;-81
2021/05/28 09:40:19;;;;;;;10.15;3.08;;;461.40;1766.40;;;;;;5031033;28;20030;-82
2021/05/28 09:42:58;;;;;;;6.00;2.30;;;461.50;1766.40;;;;;;5028386;28;20117;-79
2021/05/28 09:45:40;;;;;;;10.85;2.83;;;461.50;1766.40;;;;;;5031897;28;20032;-79
2021/05/28 09:48:15;;;;;;;6.68;2.75;;;461.60;1740.80;;;;;;5029174;28;20113;-77
2021/05/28 09:51:07;;;;;;;4.68;2.65;;;461.70;1740.80;;;;;;5007662;28;20025;-81
2021/05/28 09:53:39;;;;;;;3.40;2.22;;;461.50;1740.80;;;;;;5028165;28;20026;-76
2021/05/28 09:56:25;;;;;;;3.85;2.08;;;461.40;1740.80;;;;;;5013963;28;20036;-76
2021/05/28 09:59:01;;;;;;;7.95;2.65;;;461.40;1766.40;;;;;;5010984;28;20033;-79
2021/05/28 10:01:28;;;;;;;6.53;3.50;;;461.50;1766.40;;;;;;5013430;28;20030;-78
2021/05/28 10:04:09;;;;;;;5.63;2.42;;;461.20;1740.80;;;;;;5017208;28;20022;-84
2021/05/28 10:06:39;;;;;;;3.92;2.30;;;461.60;1766.40;;;;;;5040267;28;20121;-78
2021/05/28 10:09:10;;;;;;;3.35;2.17;;;461.50;1715.20;;;;;;5035633;28;20029;-78
2021/05/28 10:11:38;;;;;;;3.70;2.35;;;461.50;1715.20;;;;;;5017809;28;20030;-76
2021/05/28 10:14:05;;;;;;;3.30;2.20;;;461.60;1715.20;;;;;;5035796;28;20075;-76
2021/05/28 10:16:31;;;;;;;7.97;2.80;;;461.70;1740.80;;;;;;5032712;28;20017;-78
2021/05/28 10:18:57;;;;;;;6.63;2.97;;;461.70;1689.60;;;;;;5035502;28;20500;-77
2021/05/28 10:21:24;;;;;;;4.43;2.17;;;486.40;1689.60;;;;;;5035655;28;20025;-82
2021/05/28 10:23:51;;;;;;;5.15;2.22;;;486.50;1638.40;;;;;;5017854;28;20542;-84
2021/05/28 10:26:28;;;;;;;9.38;2.22;;;486.70;1664.00;;;;;;5035864;28;20025;-78
2021/05/28 10:28:54;;;;;;;7.50;2.47;;;486.80;1689.60;;;;;;5035504;28;20045;-83
2021/05/28 10:31:40;;;;;;;7.63;2.83;;;512.20;1561.60;;;;;;5017155;28;20381;-82
2021/05/28 10:34:05;;;;;;;7.97;2.77;;;512.90;1536.00;;;;;;5034882;28;20025;-79
2021/05/28 10:36:42;;;;;;;3.88;2.35;;;537.90;1536.00;;;;;;5034559;28;20020;-82
2021/05/28 10:39:09;;;;;;;3.67;2.00;;;538.30;1484.80;;;;;;5017512;28;20391;-81
2021/05/28 10:41:39;;;;;;;5.88;2.25;;;538.40;1459.20;;;;;;5025759;28;20033;-82
2021/05/28 10:44:08;;;;;;;6.03;2.05;;;563.30;1408.00;;;;;;5017421;28;20088;-79
2021/05/28 10:46:35;;;;;;;4.72;1.90;;;563.60;1382.40;;;;;;5051178;28;20024;-83
2021/05/28 10:49:01;;;;;;;9.27;2.65;;;563.60;1382.40;;;;;;5035488;28;20018;-82
2021/05/28 10:51:30;;;;;;;4.53;2.20;;;564.00;1382.40;;;;;;5050671;28;20032;-79
2021/05/28 10:53:55;;;;;;;6.85;2.10;;;588.90;1356.80;;;;;;5053813;28;20053;-83
2021/05/28 10:56:29;;;;;;;6.45;2.15;;;588.90;1305.60;;;;;;5048364;28;20044;-82
2021/05/28 10:59:14;;;;;;;7.30;2.28;;;588.90;1305.60;;;;;;5016863;28;20045;-83
2021/05/28 11:02:00;;;;;;;5.90;2.08;;;589.10;1280.00;;;;;;5017170;28;20045;-79
2021/05/28 11:04:31;;;;;;;3.92;1.88;;;589.00;1280.00;;;;;;5017675;28;20034;-83
2021/05/28 11:07:00;;;;;;;3.03;1.80;;;589.10;1587.20;;;;;;5034725;28;20080;-83
2021/05/28 11:09:50;;;;;;;4.20;2.00;;;589.10;1280.00;;;;;;5027682;28;20108;-85
2021/05/28 11:12:25;;;;;;;7.43;2.00;;;589.30;1228.80;;;;;;5018115;28;20386;-78
2021/05/28 11:15:04;;;;;;;3.03;1.75;;;589.40;1254.40;;;;;;5048893;28;20022;-78
2021/05/28 11:17:30;;;;;;;3.22;2.03;;;589.50;1254.40;;;;;;5034439;28;20079;-83
2021/05/28 11:20:03;;;;;;;5.47;1.98;;;589.70;1228.80;;;;;;5018866;28;20108;-83
2021/05/28 11:22:36;;;;;;;3.05;1.73;;;589.70;1203.20;;;;;;5018133;28;20021;-84
2021/05/28 11:25:15;;;;;;;4.00;2.00;;;589.70;1177.60;;;;;;5017293;28;20025;-84
2021/05/28 11:27:43;;;;;;;6.32;2.50;;;614.40;1203.20;;;;;;5022763;28;20026;-87
2021/05/28 11:30:09;;;;;;;4.20;1.90;;;614.60;1152.00;;;;;;5022060;28;20427;-82
2021/05/28 11:32:43;;;;;;;6.43;3.08;;;589.70;1203.20;;;;;;5035171;28;20026;-80
2021/05/28 11:35:21;;;;;;;3.20;1.60;;;614.50;1203.20;;;;;;5022509;28;20167;-88
2021/05/28 11:37:56;;;;;;;3.70;1.77;;;589.70;1177.60;;;;;;5033580;28;20487;-79
2021/05/28 11:40:25;;;;;;;4.75;2.13;;;614.50;1228.80;;;;;;5033607;28;20029;-85
2021/05/28 11:43:02;;;;;;;10.30;2.33;;;614.70;1152.00;;;;;;5033510;28;20026;-80
2021/05/28 11:45:28;;;;;;;6.80;2.50;;;614.70;1177.60;;;;;;5033465;28;20029;-79
2021/05/28 11:47:54;;;;;;;5.82;1.75;;;614.80;1152.00;;;;;;5033192;28;20017;-81
2021/05/28 11:50:20;;;;;;;4.28;2.03;;;614.90;1152.00;;;;;;5034422;28;20037;-90
2021/05/28 11:52:59;;;;;;;4.13;1.70;;;614.80;1203.20;;;;;;5025031;28;20056;-80
2021/05/28 11:55:26;;;;;;;5.55;1.80;;;614.90;1152.00;;;;;;5029883;28;20112;-87
2021/05/28 11:57:56;;;;;;;6.60;1.90;;;614.90;1152.00;;;;;;5017068;28;20487;-83
2021/05/28 12:00:23;;;;;;;5.30;1.48;;;615.00;1100.80;;;;;;5016557;28;20049;-89
2021/05/28 12:02:52;;;;;;;4.65;1.70;;;615.00;1075.20;;;;;;5024945;28;20479;-80
2021/05/28 12:05:29;;;;;;;6.03;1.48;;;614.80;1049.60;;;;;;5016723;28;20034;-82
2021/05/28 12:07:59;;;;;;;4.28;1.77;;;614.90;1126.40;;;;;;5015831;28;20029;-86
2021/05/28 12:10:27;;;;;;;5.47;2.05;;;615.10;1075.20;;;;;;5015801;28;20395;-91
2021/05/28 12:13:03;;;;;;;4.82;2.10;;;615.30;1075.20;;;;;;5016018;28;20025;-81
2021/05/28 12:15:33;;;;;;;8.50;2.28;;;640.00;1100.80;;;;;;5046988;28;20017;-83
2021/05/28 12:18:01;;;;;;;6.65;1.92;;;640.00;1126.40;;;;;;5016410;28;20026;-87
2021/05/28 12:20:32;;;;;;;6.55;1.58;;;640.10;998.40;;;;;;5015951;28;20029;-91
2021/05/28 12:23:16;;;;;;;6.60;1.95;;;640.20;1075.20;;;;;;5033941;28;20021;-90